Aeroporto :
LOGIN :

Iscrizione | Disclaimer

   EN    FR    IT 

 










Sommario :    VFR   VFR Marginale   IFR   IFR Intensivo   IFR Molto Intensivo
Visibilità : 
Base nubi : 
>= 8 km
>= 3000ft
5 / 8 km
1000 / 3000 ft
1500m / 5 km
500 / 1000 ft
800 / 1500m
200 / 500 ft
< 800m
< 200 ft
Simboli :   Temporali  Nebbia  Neve Forte  Precipitazioni Forti  Vento > 20 kt
SIGMETs :   Varie  Temporali  Ghiacco  Turbolenza  Onda orograficha  Ceneri Vulcaniche






- Altitudine del aeroporto : 19 ft
- Codice IATA : LCY


EGLC - London City

ULTIMO METAR :
  • 151820Z AUTO 21012KT 160V240 9999 FEW046 09/04 Q0999

METARs OBSOLETI :
  • 151750Z AUTO 21010KT 9999 FEW049 09/04 Q0999
  • 151720Z AUTO 21009KT 170V250 9999 FEW033 SCT042 09/04 Q0999
  • 151650Z AUTO 21009G22KT 170V290 9999 FEW043 09/03 Q0999
  • 151620Z AUTO 21011KT 170V240 9999 NCD 09/03 Q0998
  • 151550Z AUTO 23012KT 9999 NCD 10/02 Q0998

TAF TAF EGLC
Valido dal 15 a 18 ore il 15 a 21 ore UTC


151703Z 1518/1521 23012KT 9999 FEW030
PROB30
TEMPO 1518/1521 7000 SHRA
ATIS : +44 20 7646 0224



MetMap, La meteo Aeronautica in un colpo d'occhio ! - Copyright ORBIFLY Dicembre 2007 - Disclaimer

ORBIFLY MET'MAP TEAM :

Programmazione e sviluppo : Alexandra Zaïnal
Concezione : Baudouin d'Aumeries
Aiuto per la programmazione : Marc-Olivier Méhu
Supporto tecnico e logistico : Manuel Goepfert
Aiuto per la traduzione : Arnaldo La Scala

Contatto : metmap@orbifly.com




FONTI E CREDITI :

   NOAA